KHLG/HLG METAR and TAF weather

Enter ICAO airport designator
Station Type Date Time Source
KHLG METAR 2020/04/05 21:53 UTC NOAA

KHLG 052153Z 30006KT 9SM -RA OVC033 12/08 A3007 RMK AO2 RAB30 SLP187 P0000 T01170078


Station Type Date Time Source
KHLG Decoded METAR 2020/04/05 21:53 UTC NOAA

WHEELING OHIO COUNTY AIRPORT, WV, United States (KHLG) 40-10N 080-39W 372M
Apr 05, 2020 - 05:53 PM EDT / 2020.04.05 2153 UTC
Wind: from the WNW (300 degrees) at 7 MPH (6 KT):0
Visibility: 9 mile(s):0
Sky conditions: overcast
Weather: light rain
Precipitation last hour: A trace
Temperature: 53.1 F (11.7 C)
Dew Point: 46.0 F (7.8 C)
Relative Humidity: 76%
Pressure (altimeter): 30.07 in. Hg (1018 hPa)
ob: KHLG 052153Z 30006KT 9SM -RA OVC033 12/08 A3007 RMK AO2 RAB30 SLP187 P0000 T01170078
cycle: 22

Station Type Date Time Source
KHLG TAF 2020/04/05 18:33 UTC NOAA

TAF KHLG 051730Z 0518/0618 31003KT P6SM VCSH BKN040
FM052300 32003KT P6SM SCT040
FM060600 01003KT P6SM SCT250
FM061200 00000KT P6SM SCT250
FM061600 05004KT P6SM SCT250

Example: see airport list